Time;durP1;ratioP1;P1;durP2;ratioP2;P2;SDS_P1;SDS_P2;PMS_P1;PMS_P2;Temp;Humidity;BMP_temperature;BMP_pressure;BME280_temperature;BME280_humidity;BME280_pressure;Samples;Min_cycle;Max_cycle;Signal;HPM_P1;HPM_P2
2021/12/14 00:01:09;;;;;;;;;;;;;;;;;;7393415;19;19911;-62
2021/12/14 00:03:40;;;;;;;;;;;;;;;;;;7392518;19;19922;-62
2021/12/14 00:06:11;;;;;;;;;;;;;;;;;;7391793;19;20356;-63
2021/12/14 00:08:49;;;;;;;;;;;;;;;;;;7393684;19;19915;-65
2021/12/14 00:11:35;;;;;;;;;;;;;;;;;;7391675;19;19978;-63
2021/12/14 00:16:42;;;;;;;;;;;;;;;;;;7391862;19;19915;-70
2021/12/14 00:19:10;;;;;;;;;;;;;;;;;;7393542;19;19919;-66
2021/12/14 00:21:38;;;;;;;;;;;;;;;;;;7389943;19;19987;-65
2021/12/14 00:24:07;;;;;;;;;;;;;;;;;;7390935;19;19915;-71
2021/12/14 00:26:36;;;;;;;;;;;;;;;;;;7391336;19;19911;-68
2021/12/14 00:29:05;;;;;;;;;;;;;;;;;;7392797;19;19984;-66
2021/12/14 00:31:35;;;;;;;;;;;;;;;;;;7391114;19;19911;-63
2021/12/14 00:34:05;;;;;;;;;;;;;;;;;;7390991;19;19929;-63
2021/12/14 00:36:32;;;;;;;;;;;;;;;;;;7391385;19;19966;-63
2021/12/14 00:39:00;;;;;;;;;;;;;;;;;;7390746;19;19915;-66
2021/12/14 00:41:30;;;;;;;;;;;;;;;;;;7388318;19;19922;-66
2021/12/14 00:43:58;;;;;;;;;;;;;;;;;;7389577;19;19918;-68
2021/12/14 00:46:26;;;;;;;;;;;;;;;;;;7390305;19;19914;-70
2021/12/14 00:48:53;;;;;;;;;;;;;;;;;;7390083;19;20331;-66
2021/12/14 00:51:26;;;;;;;;;;;;;;;;;;7388250;19;19926;-62
2021/12/14 00:53:55;;;;;;;;;;;;;;;;;;7390737;19;19919;-71
2021/12/14 00:56:22;;;;;;;;;;;;;;;;;;7390509;19;19925;-64
2021/12/14 00:58:50;;;;;;;;;;;;;;;;;;7389664;19;20358;-64
2021/12/14 01:01:20;;;;;;;;;;;;;;;;;;7390968;19;19966;-63
2021/12/14 01:03:49;;;;;;;;;;;;;;;;;;7388573;19;19930;-71
2021/12/14 01:06:17;;;;;;;;;;;;;;;;;;7389956;19;19915;-68
2021/12/14 01:08:46;;;;;;;;;;;;;;;;;;7389187;19;20342;-61
2021/12/14 01:11:20;;;;;;;;;;;;;;;;;;7390021;19;19922;-62
2021/12/14 01:13:57;;;;;;;;;;;;;;;;;;7389926;19;20331;-62
2021/12/14 01:16:49;;;;;;;;;;;;;;;;;;7389991;19;20055;-68
2021/12/14 01:19:24;;;;;;;;;;;;;;;;;;7391172;19;19911;-65
2021/12/14 01:22:32;;;;;;;;;;;;;;;;;;7390098;19;19919;-62
2021/12/14 01:25:06;;;;;;;;;;;;;;;;;;7388052;19;20339;-66
2021/12/14 01:27:41;;;;;;;;;;;;;;;;;;7387720;19;19922;-62
2021/12/14 01:30:14;;;;;;;;;;;;;;;;;;7391320;19;20022;-63
2021/12/14 01:32:45;;;;;;;;;;;;;;;;;;7388124;19;19911;-62
2021/12/14 01:35:15;;;;;;;;;;;;;;;;;;7387273;19;20271;-66
2021/12/14 01:37:48;;;;;;;;;;;;;;;;;;7388816;19;19991;-63
2021/12/14 01:40:46;;;;;;;;;;;;;;;;;;7391382;19;19919;-63
2021/12/14 01:43:07;;;;;;;;;;;;;;;;;;7389450;19;19918;-62
2021/12/14 01:45:36;;;;;;;;;;;;;;;;;;7387258;19;19931;-62
2021/12/14 01:48:03;;;;;;;;;;;;;;;;;;7387544;19;20002;-62
2021/12/14 01:51:02;;;;;;;;;;;;;;;;;;7387756;19;20014;-65
2021/12/14 01:53:36;;;;;;;;;;;;;;;;;;7387569;19;19943;-71
2021/12/14 01:56:06;;;;;;;;;;;;;;;;;;7390156;19;19925;-70
2021/12/14 01:58:36;;;;;;;;;;;;;;;;;;7396399;19;19915;-62
2021/12/14 02:01:06;;;;;;;;;;;;;;;;;;7395954;19;19933;-62
2021/12/14 02:03:35;;;;;;;;;;;;;;;;;;7395983;19;20402;-63
2021/12/14 02:06:03;;;;;;;;;;;;;;;;;;7394548;19;20335;-64
2021/12/14 02:08:34;;;;;;;;;;;;;;;;;;7397611;19;19982;-62
2021/12/14 02:11:03;;;;;;;;;;;;;;;;;;7400048;19;20363;-62
2021/12/14 02:13:33;;;;;;;;;;;;;;;;;;7395457;19;20233;-62
2021/12/14 02:16:02;;;;;;;;;;;;;;;;;;7393059;19;19910;-67
2021/12/14 02:18:52;;;;;;;;;;;;;;;;;;7396310;19;19923;-69
2021/12/14 02:21:19;;;;;;;;;;;;;;;;;;7397385;19;19932;-64
2021/12/14 02:23:50;;;;;;;;;;;;;;;;;;7397164;19;19926;-62
2021/12/14 02:26:19;;;;;;;;;;;;;;;;;;7398258;19;19911;-65
2021/12/14 02:28:49;;;;;;;;;;;;;;;;;;7392981;19;19946;-62
2021/12/14 02:31:18;;;;;;;;;;;;;;;;;;7397386;19;19926;-64
2021/12/14 02:33:48;;;;;;;;;;;;;;;;;;7396737;19;19922;-69
2021/12/14 02:36:19;;;;;;;;;;;;;;;;;;7394608;19;19925;-63
2021/12/14 02:38:52;;;;;;;;;;;;;;;;;;7393612;19;19914;-63
2021/12/14 02:41:20;;;;;;;;;;;;;;;;;;7393749;19;19933;-64
2021/12/14 02:43:52;;;;;;;;;;;;;;;;;;7395960;19;19938;-62
2021/12/14 02:46:26;;;;;;;;;;;;;;;;;;7393910;19;19911;-62
2021/12/14 02:48:57;;;;;;;;;;;;;;;;;;7394186;19;19911;-62
2021/12/14 02:51:28;;;;;;;;;;;;;;;;;;7395808;19;19915;-62
2021/12/14 02:53:58;;;;;;;;;;;;;;;;;;7396100;19;20011;-62
2021/12/14 02:56:27;;;;;;;;;;;;;;;;;;7391934;19;19915;-62
2021/12/14 02:58:59;;;;;;;;;;;;;;;;;;7394473;19;19915;-63
2021/12/14 03:01:27;;;;;;;;;;;;;;;;;;7393807;19;20422;-62
2021/12/14 03:03:59;;;;;;;;;;;;;;;;;;7394294;19;20053;-64
2021/12/14 03:06:27;;;;;;;;;;;;;;;;;;7392221;19;19923;-62
2021/12/14 03:09:09;;;;;;;;;;;;;;;;;;7393639;19;19918;-63
2021/12/14 03:11:36;;;;;;;;;;;;;;;;;;7393677;19;19917;-63
2021/12/14 03:14:04;;;;;;;;;;;;;;;;;;7393863;19;19930;-62
2021/12/14 03:16:33;;;;;;;;;;;;;;;;;;7392235;19;19939;-63
2021/12/14 03:19:02;;;;;;;;;;;;;;;;;;7393267;19;19933;-62
2021/12/14 03:21:31;;;;;;;;;;;;;;;;;;7395036;19;20414;-63
2021/12/14 03:24:08;;;;;;;;;;;;;;;;;;7395341;19;19919;-68
2021/12/14 03:26:38;;;;;;;;;;;;;;;;;;7394479;19;20346;-62
2021/12/14 03:29:11;;;;;;;;;;;;;;;;;;7394691;19;19922;-63
2021/12/14 03:31:43;;;;;;;;;;;;;;;;;;7392769;19;19938;-65
2021/12/14 03:34:20;;;;;;;;;;;;;;;;;;7393129;19;19915;-63
2021/12/14 03:36:49;;;;;;;;;;;;;;;;;;7395673;19;19911;-69
2021/12/14 03:39:16;;;;;;;;;;;;;;;;;;7392990;19;19919;-63
2021/12/14 03:41:49;;;;;;;;;;;;;;;;;;7394199;19;19919;-63
2021/12/14 03:44:20;;;;;;;;;;;;;;;;;;7394052;19;19921;-62
2021/12/14 03:46:53;;;;;;;;;;;;;;;;;;7392112;19;20300;-67
2021/12/14 03:49:27;;;;;;;;;;;;;;;;;;7392490;19;20335;-62
2021/12/14 03:51:56;;;;;;;;;;;;;;;;;;7394264;19;19919;-62
2021/12/14 03:54:25;;;;;;;;;;;;;;;;;;7393523;19;19919;-66
2021/12/14 03:56:53;;;;;;;;;;;;;;;;;;7391743;19;19915;-69
2021/12/14 03:59:27;;;;;;;;;;;;;;;;;;7392072;19;19922;-63
2021/12/14 04:01:57;;;;;;;;;;;;;;;;;;7391816;19;19970;-62
2021/12/14 04:04:28;;;;;;;;;;;;;;;;;;7391942;19;19939;-63
2021/12/14 04:06:58;;;;;;;;;;;;;;;;;;7391895;19;19923;-70
2021/12/14 04:09:28;;;;;;;;;;;;;;;;;;7391771;19;19982;-65
2021/12/14 04:11:56;;;;;;;;;;;;;;;;;;7393121;19;20327;-67
2021/12/14 04:14:28;;;;;;;;;;;;;;;;;;7391611;19;20299;-63
2021/12/14 04:16:58;;;;;;;;;;;;;;;;;;7391439;19;19915;-63
2021/12/14 04:19:29;;;;;;;;;;;;;;;;;;7388920;19;19914;-63
2021/12/14 04:21:59;;;;;;;;;;;;;;;;;;7392931;19;19987;-62
2021/12/14 04:24:30;;;;;;;;;;;;;;;;;;7391832;19;19988;-63
2021/12/14 04:26:59;;;;;;;;;;;;;;;;;;7393527;19;20283;-63
2021/12/14 04:29:29;;;;;;;;;;;;;;;;;;7391261;19;19939;-70
2021/12/14 04:31:59;;;;;;;;;;;;;;;;;;7390828;19;19915;-62
2021/12/14 04:34:28;;;;;;;;;;;;;;;;;;7391382;19;20367;-63
2021/12/14 04:36:56;;;;;;;;;;;;;;;;;;7394097;19;19929;-63
2021/12/14 04:53:10;;;;;;;;;;;;;;;;;;7392435;19;20040;-63
2021/12/14 04:55:40;;;;;;;;;;;;;;;;;;7389769;19;19922;-64
2021/12/14 04:58:07;;;;;;;;;;;;;;;;;;7392082;19;19915;-61
2021/12/14 05:00:38;;;;;;;;;;;;;;;;;;7391880;19;19919;-65
2021/12/14 05:03:19;;;;;;;;;;;;;;;;;;7390683;19;19919;-62
2021/12/14 05:05:50;;;;;;;;;;;;;;;;;;7390081;19;19919;-62
2021/12/14 05:11:03;;;;;;;;;;;;;;;;;;7391471;19;19918;-63
2021/12/14 05:13:34;;;;;;;;;;;;;;;;;;7390165;19;19918;-63
2021/12/14 05:16:03;;;;;;;;;;;;;;;;;;7389366;19;19926;-63
2021/12/14 05:18:30;;;;;;;;;;;;;;;;;;7389574;19;19933;-62
2021/12/14 05:20:59;;;;;;;;;;;;;;;;;;7389636;19;19911;-62
2021/12/14 05:23:31;;;;;;;;;;;;;;;;;;7389602;19;19934;-62
2021/12/14 05:26:06;;;;;;;;;;;;;;;;;;7391179;19;19954;-63
2021/12/14 05:28:34;;;;;;;;;;;;;;;;;;7390963;19;19919;-62
2021/12/14 05:31:09;;;;;;;;;;;;;;;;;;7395701;19;19919;-63
2021/12/14 05:33:42;;;;;;;;;;;;;;;;;;7397272;19;19925;-63
2021/12/14 05:36:32;;;;;;;;;;;;;;;;;;7397928;19;19921;-68
2021/12/14 05:39:17;;;;;;;;;;;;;;;;;;7396644;19;19919;-65
2021/12/14 05:44:54;;;;;;;;;;;;;;;;;;7396874;19;20255;-63
2021/12/14 05:47:25;;;;;;;;;;;;;;;;;;7396507;19;19985;-69
2021/12/14 05:50:17;;;;;;;;;;;;;;;;;;7398006;19;19915;-62
2021/12/14 05:52:46;;;;;;;;;;;;;;;;;;7395963;19;20320;-63
2021/12/14 05:55:19;;;;;;;;;;;;;;;;;;7395945;19;19923;-63
2021/12/14 05:57:46;;;;;;;;;;;;;;;;;;7397980;19;19931;-63
2021/12/14 06:00:16;;;;;;;;;;;;;;;;;;7398111;19;19971;-63
2021/12/14 06:02:50;;;;;;;;;;;;;;;;;;7395919;19;19932;-63
2021/12/14 06:05:19;;;;;;;;;;;;;;;;;;7395981;19;19929;-63
2021/12/14 06:07:47;;;;;;;;;;;;;;;;;;7395449;19;20250;-63
2021/12/14 06:10:16;;;;;;;;;;;;;;;;;;7397356;19;19915;-67
2021/12/14 06:12:43;;;;;;;;;;;;;;;;;;7395853;19;19915;-66
2021/12/14 06:15:17;;;;;;;;;;;;;;;;;;7396094;19;19994;-63
2021/12/14 06:17:46;;;;;;;;;;;;;;;;;;7395710;19;19946;-64
2021/12/14 06:20:30;;;;;;;;;;;;;;;;;;7395440;19;20383;-63
2021/12/14 06:23:00;;;;;;;;;;;;;;;;;;7395597;19;19923;-63
2021/12/14 06:25:46;;;;;;;;;;;;;;;;;;7399815;19;19949;-65
2021/12/14 06:28:20;;;;;;;;;;;;;;;;;;7397820;19;20471;-66
2021/12/14 06:30:48;;;;;;;;;;;;;;;;;;7396398;19;19925;-66
2021/12/14 06:33:15;;;;;;;;;;;;;;;;;;7395017;19;19974;-63
2021/12/14 06:35:47;;;;;;;;;;;;;;;;;;7397059;19;20338;-63
2021/12/14 06:38:28;;;;;;;;;;;;;;;;;;7395201;19;19907;-67
2021/12/14 06:41:04;;;;;;;;;;;;;;;;;;7391162;19;19923;-62
2021/12/14 06:43:34;;;;;;;;;;;;;;;;;;7394475;19;19919;-63
2021/12/14 06:46:22;;;;;;;;;;;;;;;;;;7394235;19;20356;-67
2021/12/14 06:49:15;;;;;;;;;;;;;;;;;;7394249;19;19915;-69
2021/12/14 06:51:47;;;;;;;;;;;;;;;;;;7393899;19;20342;-63
2021/12/14 06:54:33;;;;;;;;;;;;;;;;;;7396055;19;19922;-69
2021/12/14 06:57:04;;;;;;;;;;;;;;;;;;7394196;19;19927;-63
2021/12/14 06:59:42;;;;;;;;;;;;;;;;;;7394896;19;19915;-64
2021/12/14 07:02:11;;;;;;;;;;;;;;;;;;7391653;19;19915;-63
2021/12/14 07:05:24;;;;;;;;;;;;;;;;;;7394435;19;19929;-63
2021/12/14 07:07:59;;;;;;;;;;;;;;;;;;7393996;19;19918;-64
2021/12/14 07:10:33;;;;;;;;;;;;;;;;;;7392030;19;20623;-68
2021/12/14 07:13:08;;;;;;;;;;;;;;;;;;7392827;19;19934;-63
2021/12/14 07:15:36;;;;;;;;;;;;;;;;;;7395059;19;20343;-63
2021/12/14 07:18:05;;;;;;;;;;;;;;;;;;7393473;19;20245;-64
2021/12/14 07:20:40;;;;;;;;;;;;;;;;;;7394708;19;19925;-63
2021/12/14 07:23:28;;;;;;;;;;;;;;;;;;7394936;19;19915;-63
2021/12/14 07:25:58;;;;;;;;;;;;;;;;;;7394918;19;19927;-62
2021/12/14 07:28:28;;;;;;;;;;;;;;;;;;7394625;19;19918;-63
2021/12/14 07:30:57;;;;;;;;;;;;;;;;;;7394472;19;19990;-63
2021/12/14 07:33:26;;;;;;;;;;;;;;;;;;7394380;19;19950;-64
2021/12/14 07:36:08;;;;;;;;;;;;;;;;;;7395199;19;19915;-69
2021/12/14 07:38:38;;;;;;;;;;;;;;;;;;7394576;19;20361;-63
2021/12/14 07:41:11;;;;;;;;;;;;;;;;;;7392297;19;19940;-64
2021/12/14 07:43:45;;;;;;;;;;;;;;;;;;7393508;19;19911;-67
2021/12/14 07:46:14;;;;;;;;;;;;;;;;;;7394528;19;19939;-64
2021/12/14 07:48:53;;;;;;;;;;;;;;;;;;7395115;19;19923;-68
2021/12/14 07:51:20;;;;;;;;;;;;;;;;;;7387944;19;19941;-65
2021/12/14 07:53:49;;;;;;;;;;;;;;;;;;7388764;19;19947;-64
2021/12/14 07:56:22;;;;;;;;;;;;;;;;;;7388608;19;19915;-63
2021/12/14 07:58:49;;;;;;;;;;;;;;;;;;7390509;19;19911;-64
2021/12/14 08:01:17;;;;;;;;;;;;;;;;;;7391207;19;20287;-63
2021/12/14 08:03:44;;;;;;;;;;;;;;;;;;7392329;19;20367;-63
2021/12/14 08:06:14;;;;;;;;;;;;;;;;;;7392335;19;19915;-68
2021/12/14 08:08:46;;;;;;;;;;;;;;;;;;7393452;19;19924;-63
2021/12/14 08:14:01;;;;;;;;;;;;;;;;;;7393064;19;20331;-65
2021/12/14 08:16:49;;;;;;;;;;;;;;;;;;7392426;19;19918;-67
2021/12/14 08:19:33;;;;;;;;;;;;;;;;;;7393134;19;19922;-64
2021/12/14 08:22:03;;;;;;;;;;;;;;;;;;7392960;19;19919;-67
2021/12/14 08:24:30;;;;;;;;;;;;;;;;;;7393042;19;19918;-66
2021/12/14 08:26:59;;;;;;;;;;;;;;;;;;7392584;19;20331;-64
2021/12/14 08:29:31;;;;;;;;;;;;;;;;;;7392866;19;19915;-66
2021/12/14 08:32:07;;;;;;;;;;;;;;;;;;7392561;19;20331;-65
2021/12/14 08:34:38;;;;;;;;;;;;;;;;;;7392480;19;19939;-67
2021/12/14 08:37:33;;;;;;;;;;;;;;;;;;7395526;19;19919;-65
2021/12/14 08:40:09;;;;;;;;;;;;;;;;;;7391492;19;19922;-67
2021/12/14 08:45:30;;;;;;;;;;;;;;;;;;7391325;19;19914;-66
2021/12/14 08:48:03;;;;;;;;;;;;;;;;;;7392140;19;20323;-65
2021/12/14 08:50:32;;;;;;;;;;;;;;;;;;7391852;19;19919;-67
2021/12/14 08:53:00;;;;;;;;;;;;;;;;;;7392056;19;19964;-66
2021/12/14 08:55:31;;;;;;;;;;;;;;;;;;7392388;19;19918;-67
2021/12/14 08:57:59;;;;;;;;;;;;;;;;;;7390577;19;19939;-65
2021/12/14 09:00:30;;;;;;;;;;;;;;;;;;7391719;19;19936;-67
2021/12/14 09:03:00;;;;;;;;;;;;;;;;;;7394628;19;19923;-68
2021/12/14 09:05:32;;;;;;;;;;;;;;;;;;7395398;19;19944;-62
2021/12/14 09:08:00;;;;;;;;;;;;;;;;;;7399600;19;19919;-64
2021/12/14 09:10:30;;;;;;;;;;;;;;;;;;7395020;19;19919;-65
2021/12/14 09:12:59;;;;;;;;;;;;;;;;;;7399099;19;20311;-67
2021/12/14 09:15:29;;;;;;;;;;;;;;;;;;7398951;19;20269;-65
2021/12/14 09:17:56;;;;;;;;;;;;;;;;;;7396681;19;19958;-67
2021/12/14 09:20:29;;;;;;;;;;;;;;;;;;7399071;19;19922;-66
2021/12/14 09:22:59;;;;;;;;;;;;;;;;;;7398781;19;19982;-65
2021/12/14 09:25:29;;;;;;;;;;;;;;;;;;7398475;19;19925;-65
2021/12/14 09:27:57;;;;;;;;;;;;;;;;;;7398531;19;19915;-66
2021/12/14 09:30:26;;;;;;;;;;;;;;;;;;7398777;19;19922;-65
2021/12/14 09:32:55;;;;;;;;;;;;;;;;;;7398708;19;19923;-65
2021/12/14 09:35:23;;;;;;;;;;;;;;;;;;7398758;19;19932;-64
2021/12/14 09:37:52;;;;;;;;;;;;;;;;;;7396200;19;19919;-67
2021/12/14 09:40:21;;;;;;;;;;;;;;;;;;7396580;19;19926;-65
2021/12/14 09:42:49;;;;;;;;;;;;;;;;;;7398242;19;19930;-66
2021/12/14 09:45:21;;;;;;;;;;;;;;;;;;7397268;19;19915;-66
2021/12/14 09:47:49;;;;;;;;;;;;;;;;;;7398310;19;19929;-66
2021/12/14 09:50:19;;;;;;;;;;;;;;;;;;7397569;19;19923;-66
2021/12/14 09:52:48;;;;;;;;;;;;;;;;;;7396071;19;20319;-65
2021/12/14 09:55:21;;;;;;;;;;;;;;;;;;7396146;19;19918;-65
2021/12/14 09:57:53;;;;;;;;;;;;;;;;;;7395592;19;20332;-64
2021/12/14 10:00:32;;;;;;;;;;;;;;;;;;7397922;19;19919;-64
2021/12/14 10:03:00;;;;;;;;;;;;;;;;;;7396998;19;20236;-64
2021/12/14 10:05:31;;;;;;;;;;;;;;;;;;7397339;19;19922;-65
2021/12/14 10:07:59;;;;;;;;;;;;;;;;;;7396237;19;19919;-64
2021/12/14 10:10:29;;;;;;;;;;;;;;;;;;7397093;19;19956;-63
2021/12/14 10:12:57;;;;;;;;;;;;;;;;;;7397308;19;19919;-63
2021/12/14 10:15:33;;;;;;;;;;;;;;;;;;7396813;19;19919;-63
2021/12/14 10:18:06;;;;;;;;;;;;;;;;;;7392889;19;19922;-64
2021/12/14 10:20:45;;;;;;;;;;;;;;;;;;7396975;19;19922;-63
2021/12/14 10:23:14;;;;;;;;;;;;;;;;;;7397114;19;19911;-63
2021/12/14 10:25:41;;;;;;;;;;;;;;;;;;7396743;19;19918;-63
2021/12/14 10:28:09;;;;;;;;;;;;;;;;;;7396531;19;19915;-62
2021/12/14 10:30:42;;;;;;;;;;;;;;;;;;7397034;19;19914;-63
2021/12/14 10:33:09;;;;;;;;;;;;;;;;;;7396320;19;19915;-62
2021/12/14 10:35:44;;;;;;;;;;;;;;;;;;7397009;19;19927;-63
2021/12/14 10:38:21;;;;;;;;;;;;;;;;;;7392901;19;20462;-62
2021/12/14 10:43:40;;;;;;;;;;;;;;;;;;7394781;19;19915;-62
2021/12/14 10:46:10;;;;;;;;;;;;;;;;;;7396425;19;20396;-62
2021/12/14 10:48:40;;;;;;;;;;;;;;;;;;7396172;19;19935;-61
2021/12/14 10:51:09;;;;;;;;;;;;;;;;;;7393904;19;19923;-62
2021/12/14 10:53:41;;;;;;;;;;;;;;;;;;7396285;19;19919;-62
2021/12/14 10:56:29;;;;;;;;;;;;;;;;;;7395269;19;19985;-61
2021/12/14 10:58:59;;;;;;;;;;;;;;;;;;7395764;19;19915;-62
2021/12/14 11:01:31;;;;;;;;;;;;;;;;;;7395206;19;19932;-62
2021/12/14 11:04:04;;;;;;;;;;;;;;;;;;7395277;19;20593;-60
2021/12/14 11:06:33;;;;;;;;;;;;;;;;;;7395304;19;19918;-60
2021/12/14 11:11:38;;;;;;;;;;;;;;;;;;7395240;19;19915;-59
2021/12/14 11:14:08;;;;;;;;;;;;;;;;;;7395323;19;19922;-59
2021/12/14 11:19:32;;;;;;;;;;;;;;;;;;7394935;19;19926;-59
2021/12/14 11:22:06;;;;;;;;;;;;;;;;;;7393521;19;19974;-59
2021/12/14 11:24:34;;;;;;;;;;;;;;;;;;7392117;19;19929;-60
2021/12/14 11:27:10;;;;;;;;;;;;;;;;;;7394918;19;19921;-62
2021/12/14 11:29:37;;;;;;;;;;;;;;;;;;7394743;19;19933;-61
2021/12/14 11:32:07;;;;;;;;;;;;;;;;;;7396681;19;19919;-61
2021/12/14 11:34:37;;;;;;;;;;;;;;;;;;7391777;19;19915;-62
2021/12/14 11:37:08;;;;;;;;;;;;;;;;;;7396502;19;19922;-60
2021/12/14 11:39:47;;;;;;;;;;;;;;;;;;7392079;19;19925;-62
2021/12/14 11:42:18;;;;;;;;;;;;;;;;;;7394863;19;19946;-60
2021/12/14 11:44:50;;;;;;;;;;;;;;;;;;7394388;19;19921;-55
2021/12/14 11:49:57;;;;;;;;;;;;;;;;;;7394297;19;19930;-63
2021/12/14 11:52:50;;;;;;;;;;;;;;;;;;7393885;19;19915;-62
2021/12/14 11:55:32;;;;;;;;;;;;;;;;;;7395944;19;19928;-62
2021/12/14 11:58:05;;;;;;;;;;;;;;;;;;7390208;19;19914;-61
2021/12/14 12:00:34;;;;;;;;;;;;;;;;;;7396813;19;19937;-60
2021/12/14 12:03:37;;;;;;;;;;;;;;;;;;7392738;19;20287;-61
2021/12/14 12:06:09;;;;;;;;;;;;;;;;;;7387445;19;19972;-61
2021/12/14 12:11:32;;;;;;;;;;;;;;;;;;7391915;19;20327;-61
2021/12/14 12:14:00;;;;;;;;;;;;;;;;;;7392877;19;19918;-62
2021/12/14 12:16:27;;;;;;;;;;;;;;;;;;7393233;19;19982;-61
2021/12/14 12:19:07;;;;;;;;;;;;;;;;;;7391049;19;19930;-63
2021/12/14 12:21:35;;;;;;;;;;;;;;;;;;7393245;19;19976;-62
2021/12/14 12:24:03;;;;;;;;;;;;;;;;;;7393167;19;19911;-62
2021/12/14 12:26:30;;;;;;;;;;;;;;;;;;7392813;19;19927;-62
2021/12/14 12:29:02;;;;;;;;;;;;;;;;;;7392559;19;19918;-62
2021/12/14 12:31:33;;;;;;;;;;;;;;;;;;7393220;19;19915;-62
2021/12/14 12:34:02;;;;;;;;;;;;;;;;;;7392390;19;20248;-62
2021/12/14 12:36:35;;;;;;;;;;;;;;;;;;7394921;19;19914;-62
2021/12/14 12:39:13;;;;;;;;;;;;;;;;;;7388646;19;19926;-61
2021/12/14 12:41:48;;;;;;;;;;;;;;;;;;7393989;19;19919;-61
2021/12/14 12:44:19;;;;;;;;;;;;;;;;;;7390245;19;19942;-63
2021/12/14 12:46:54;;;;;;;;;;;;;;;;;;7391832;19;19914;-63
2021/12/14 12:49:27;;;;;;;;;;;;;;;;;;7392697;19;19926;-62
2021/12/14 12:52:10;;;;;;;;;;;;;;;;;;7392095;19;19911;-62
2021/12/14 12:54:49;;;;;;;;;;;;;;;;;;7390301;19;19938;-62
2021/12/14 12:57:34;;;;;;;;;;;;;;;;;;7391664;19;20355;-62
2021/12/14 13:00:07;;;;;;;;;;;;;;;;;;7391866;19;19978;-62
2021/12/14 13:02:35;;;;;;;;;;;;;;;;;;7391394;19;19919;-62
2021/12/14 13:05:18;;;;;;;;;;;;;;;;;;7391427;19;19915;-61
2021/12/14 13:07:48;;;;;;;;;;;;;;;;;;7392078;19;19950;-62
2021/12/14 13:10:19;;;;;;;;;;;;;;;;;;7392000;19;19923;-62
2021/12/14 13:13:07;;;;;;;;;;;;;;;;;;7391784;19;19926;-62
2021/12/14 13:15:37;;;;;;;;;;;;;;;;;;7391749;19;19915;-62
2021/12/14 13:18:14;;;;;;;;;;;;;;;;;;7390375;19;19921;-62
2021/12/14 13:20:42;;;;;;;;;;;;;;;;;;7391689;19;19949;-62
2021/12/14 13:23:09;;;;;;;;;;;;;;;;;;7391050;19;19919;-62
2021/12/14 13:25:37;;;;;;;;;;;;;;;;;;7391456;19;19934;-62
2021/12/14 13:28:04;;;;;;;;;;;;;;;;;;7391373;19;19915;-62
2021/12/14 13:30:32;;;;;;;;;;;;;;;;;;7390617;19;19978;-62
2021/12/14 13:32:59;;;;;;;;;;;;;;;;;;7390993;19;19919;-62
2021/12/14 13:35:31;;;;;;;;;;;;;;;;;;7391019;19;19938;-61
2021/12/14 13:38:03;;;;;;;;;;;;;;;;;;7389774;19;19915;-64
2021/12/14 13:40:35;;;;;;;;;;;;;;;;;;7389879;19;19950;-62
2021/12/14 13:43:11;;;;;;;;;;;;;;;;;;7391012;19;19982;-63
2021/12/14 13:45:42;;;;;;;;;;;;;;;;;;7390120;19;19946;-63
2021/12/14 13:48:10;;;;;;;;;;;;;;;;;;7390734;19;19919;-62
2021/12/14 13:50:48;;;;;;;;;;;;;;;;;;7392132;19;19931;-63
2021/12/14 13:53:17;;;;;;;;;;;;;;;;;;7398399;19;19919;-63
2021/12/14 13:56:06;;;;;;;;;;;;;;;;;;7398309;19;19925;-62
2021/12/14 13:58:34;;;;;;;;;;;;;;;;;;7396007;19;20323;-63
2021/12/14 14:01:01;;;;;;;;;;;;;;;;;;7397400;19;19982;-64
2021/12/14 14:03:33;;;;;;;;;;;;;;;;;;7395965;19;19935;-63
2021/12/14 14:06:02;;;;;;;;;;;;;;;;;;7397492;19;19921;-59
2021/12/14 14:08:40;;;;;;;;;;;;;;;;;;7397405;19;19914;-60
2021/12/14 14:11:09;;;;;;;;;;;;;;;;;;7397726;19;19933;-60
2021/12/14 14:13:36;;;;;;;;;;;;;;;;;;7397285;19;20425;-61
2021/12/14 14:16:06;;;;;;;;;;;;;;;;;;7397412;19;19926;-61
2021/12/14 14:18:36;;;;;;;;;;;;;;;;;;7395724;19;19911;-61
2021/12/14 14:21:05;;;;;;;;;;;;;;;;;;7396971;19;19939;-61
2021/12/14 14:23:36;;;;;;;;;;;;;;;;;;7396878;19;19923;-61
2021/12/14 14:26:05;;;;;;;;;;;;;;;;;;7397018;19;19915;-61
2021/12/14 14:28:41;;;;;;;;;;;;;;;;;;7397575;19;19911;-60
2021/12/14 14:31:11;;;;;;;;;;;;;;;;;;7396937;19;20138;-61
2021/12/14 14:33:44;;;;;;;;;;;;;;;;;;7399220;19;19919;-60
2021/12/14 14:36:25;;;;;;;;;;;;;;;;;;7398183;19;20334;-59
2021/12/14 14:39:04;;;;;;;;;;;;;;;;;;7394715;19;19911;-61
2021/12/14 14:41:33;;;;;;;;;;;;;;;;;;7393887;19;20331;-61
2021/12/14 14:44:00;;;;;;;;;;;;;;;;;;7396154;19;19911;-60
2021/12/14 14:46:46;;;;;;;;;;;;;;;;;;7395830;19;19911;-61
2021/12/14 14:49:16;;;;;;;;;;;;;;;;;;7396720;19;19911;-61
2021/12/14 14:51:48;;;;;;;;;;;;;;;;;;7396189;19;19954;-61
2021/12/14 14:54:32;;;;;;;;;;;;;;;;;;7396504;19;19942;-62
2021/12/14 14:57:10;;;;;;;;;;;;;;;;;;7395273;19;19921;-63
2021/12/14 14:59:40;;;;;;;;;;;;;;;;;;7393759;19;19919;-61
2021/12/14 15:02:09;;;;;;;;;;;;;;;;;;7393718;19;19982;-60
2021/12/14 15:04:55;;;;;;;;;;;;;;;;;;7395659;19;19915;-61
2021/12/14 15:07:22;;;;;;;;;;;;;;;;;;7395206;19;19942;-63
2021/12/14 15:10:07;;;;;;;;;;;;;;;;;;7396902;19;19915;-63
2021/12/14 15:12:37;;;;;;;;;;;;;;;;;;7395294;19;19915;-61
2021/12/14 15:15:17;;;;;;;;;;;;;;;;;;7395195;19;19926;-61
2021/12/14 15:17:46;;;;;;;;;;;;;;;;;;7394061;19;19926;-61
2021/12/14 15:20:33;;;;;;;;;;;;;;;;;;7394640;19;20354;-61
2021/12/14 15:23:02;;;;;;;;;;;;;;;;;;7394874;19;19919;-62
2021/12/14 15:25:30;;;;;;;;;;;;;;;;;;7394791;19;19914;-62
2021/12/14 15:28:00;;;;;;;;;;;;;;;;;;7394795;19;19915;-62
2021/12/14 15:30:44;;;;;;;;;;;;;;;;;;7394320;19;20296;-64
2021/12/14 15:33:19;;;;;;;;;;;;;;;;;;7394858;19;20357;-62
2021/12/14 15:35:53;;;;;;;;;;;;;;;;;;7396079;19;19915;-62
2021/12/14 15:38:35;;;;;;;;;;;;;;;;;;7393977;19;19918;-63
2021/12/14 15:41:08;;;;;;;;;;;;;;;;;;7392653;19;19922;-63
2021/12/14 15:43:39;;;;;;;;;;;;;;;;;;7394579;19;19919;-62
2021/12/14 15:46:33;;;;;;;;;;;;;;;;;;7394056;19;19922;-62
2021/12/14 15:49:03;;;;;;;;;;;;;;;;;;7397438;19;19921;-62
2021/12/14 15:51:35;;;;;;;;;;;;;;;;;;7394047;19;19930;-63
2021/12/14 15:54:09;;;;;;;;;;;;;;;;;;7394136;19;19914;-63
2021/12/14 15:57:08;;;;;;;;;;;;;;;;;;7393481;19;19914;-63
2021/12/14 15:59:37;;;;;;;;;;;;;;;;;;7390905;19;19918;-62
2021/12/14 16:02:17;;;;;;;;;;;;;;;;;;7392773;19;19921;-63
2021/12/14 16:04:46;;;;;;;;;;;;;;;;;;7394487;19;19918;-62
2021/12/14 16:07:15;;;;;;;;;;;;;;;;;;7393544;19;20335;-63
2021/12/14 16:09:47;;;;;;;;;;;;;;;;;;7393111;19;19941;-63
2021/12/14 16:15:12;;;;;;;;;;;;;;;;;;7391135;19;19922;-63
2021/12/14 16:17:40;;;;;;;;;;;;;;;;;;7391340;19;20262;-64
2021/12/14 16:20:08;;;;;;;;;;;;;;;;;;7392801;19;19911;-63
2021/12/14 16:22:37;;;;;;;;;;;;;;;;;;7392621;19;19942;-63
2021/12/14 16:25:13;;;;;;;;;;;;;;;;;;7392867;19;19915;-64
2021/12/14 16:27:43;;;;;;;;;;;;;;;;;;7392802;19;19923;-64
2021/12/14 16:30:20;;;;;;;;;;;;;;;;;;7391807;19;19919;-63
2021/12/14 16:33:00;;;;;;;;;;;;;;;;;;7392671;19;19922;-60
2021/12/14 16:35:31;;;;;;;;;;;;;;;;;;7392269;19;19923;-62
2021/12/14 16:38:02;;;;;;;;;;;;;;;;;;7392248;19;19986;-63
2021/12/14 16:40:30;;;;;;;;;;;;;;;;;;7391759;19;19929;-63
2021/12/14 16:42:57;;;;;;;;;;;;;;;;;;7392087;19;20323;-61
2021/12/14 16:45:25;;;;;;;;;;;;;;;;;;7391758;19;19918;-61
2021/12/14 16:47:52;;;;;;;;;;;;;;;;;;7392039;19;19966;-62
2021/12/14 16:50:24;;;;;;;;;;;;;;;;;;7391483;19;19911;-63
2021/12/14 16:52:52;;;;;;;;;;;;;;;;;;7392320;19;19915;-62
2021/12/14 16:55:23;;;;;;;;;;;;;;;;;;7392054;19;19935;-61
2021/12/14 16:57:51;;;;;;;;;;;;;;;;;;7391369;19;19915;-62
2021/12/14 17:00:21;;;;;;;;;;;;;;;;;;7392774;19;19926;-62
2021/12/14 17:02:50;;;;;;;;;;;;;;;;;;7392356;19;19923;-62
2021/12/14 17:05:19;;;;;;;;;;;;;;;;;;7392212;19;19914;-62
2021/12/14 17:07:47;;;;;;;;;;;;;;;;;;7391875;19;20346;-62
2021/12/14 17:10:23;;;;;;;;;;;;;;;;;;7392073;19;19911;-61
2021/12/14 17:13:12;;;;;;;;;;;;;;;;;;7391458;19;19971;-63
2021/12/14 17:15:41;;;;;;;;;;;;;;;;;;7391962;19;19927;-63
2021/12/14 17:18:29;;;;;;;;;;;;;;;;;;7391070;19;20327;-62
2021/12/14 17:20:58;;;;;;;;;;;;;;;;;;7390606;19;19991;-62
2021/12/14 17:23:27;;;;;;;;;;;;;;;;;;7391384;19;19914;-65
2021/12/14 17:25:56;;;;;;;;;;;;;;;;;;7392501;19;19911;-63
2021/12/14 17:28:43;;;;;;;;;;;;;;;;;;7398708;19;19911;-62
2021/12/14 17:31:12;;;;;;;;;;;;;;;;;;7398389;19;19942;-63
2021/12/14 17:33:40;;;;;;;;;;;;;;;;;;7398741;19;19948;-62
2021/12/14 17:36:17;;;;;;;;;;;;;;;;;;7400325;19;20294;-62
2021/12/14 17:38:46;;;;;;;;;;;;;;;;;;7397560;19;20335;-62
2021/12/14 17:41:30;;;;;;;;;;;;;;;;;;7396061;19;19923;-62
2021/12/14 17:44:07;;;;;;;;;;;;;;;;;;7397999;19;19923;-62
2021/12/14 17:46:35;;;;;;;;;;;;;;;;;;7398398;19;20304;-63
2021/12/14 17:49:06;;;;;;;;;;;;;;;;;;7398206;19;20331;-63
2021/12/14 17:51:34;;;;;;;;;;;;;;;;;;7397589;19;19918;-63
2021/12/14 17:54:01;;;;;;;;;;;;;;;;;;7398012;19;19915;-62
2021/12/14 17:56:28;;;;;;;;;;;;;;;;;;7397760;19;20367;-62
2021/12/14 17:58:55;;;;;;;;;;;;;;;;;;7396792;19;19974;-63
2021/12/14 18:01:23;;;;;;;;;;;;;;;;;;7398132;19;19978;-63
2021/12/14 18:03:54;;;;;;;;;;;;;;;;;;7397660;19;19922;-62
2021/12/14 18:06:26;;;;;;;;;;;;;;;;;;7397916;19;19911;-62